Latest Weather Observations for Stawell

IDV60801

Issued at 6:42 am EDT Saturday 19 October 2019 (issued every 10 minutes, with the page automatically refreshed every 10 minutes)

About weather observations | Map of weather stations | Latest weather observations for VIC | Other Formats
Station Details ID: 079105 Name: STAWELL AERODROME Lat: -37.07 Lon: 142.74 Height: 235.36 m
Data from the previous 72 hours. | See also: Recent months at Stawell
Date/Time
EDT
Temp
°C
App
Temp
°C
Dew
Point
°C
Rel
Hum
%
Delta-T
°C
Wind Press
QNH
hPa
Press
MSL
hPa
Rain since
9am
mm
Dir  Spd
km/h
Gust
km/h
Spd
kts
Gust
kts
19/06:30am 7.8 5.5 2.9 71 2.1 WSW 4 11 2 6 1014.7 1014.6 0.2
19/06:00am 7.8 4.7 3.8 76 1.7 WSW 9 13 5 7 1014.3 1014.2 0.2
19/05:30am 8.5 4.9 3.1 69 2.3 WNW 11 22 6 12 1013.7 1013.6 0.2
19/05:00am 8.6 5.4 3.0 68 2.4 NW 9 17 5 9 1013.7 1013.6 0.2
19/04:30am 8.7 4.7 2.7 66 2.6 W 13 26 7 14 1013.5 1013.3 0.2
19/04:00am 8.9 5.3 3.1 67 2.5 WNW 11 24 6 13 1013.5 1013.3 0.2
19/03:30am 8.1 6.1 4.5 78 1.6 NW 4 11 2 6 1013.7 1013.6 0.2
19/03:00am 8.3 5.9 5.4 82 1.3 NNW 7 11 4 6 1013.8 1013.7 0.2
19/02:30am 8.7 5.9 5.1 78 1.6 N 9 11 5 6 1013.7 1013.6 0.2
19/02:00am 9.0 6.4 4.2 72 2.1 NW 7 11 4 6 1014.1 1014.0 0.2
19/01:30am 8.8 5.8 4.0 72 2.1 WNW 9 17 5 9 1014.0 1013.9 0.2
19/01:00am 9.1 5.7 3.9 70 2.3 WNW 11 17 6 9 1014.1 1014.0 0.2
19/12:30am 9.1 6.5 4.1 71 2.2 WNW 7 13 4 7 1014.1 1014.0 0.2
19/12:00am 9.6 7.0 4.2 69 2.4 NW 7 11 4 6 1014.1 1014.0 0.2
 
Date/Time
EDT
Temp
°C
App
Temp
°C
Dew
Point
°C
Rel
Hum
%
Delta-T
°C
Wind Press
QNH
hPa
Press
MSL
hPa
Rain since
9am
mm
Dir  Spd
km/h
Gust
km/h
Spd
kts
Gust
kts
18/11:30pm 10.3 6.6 4.2 66 2.7 WNW 13 20 7 11 1014.2 1014.1 0.2
18/11:00pm 10.7 6.2 4.0 63 3.0 W 17 32 9 17 1014.4 1014.3 0.2
18/10:30pm 11.3 6.3 3.8 60 3.4 W 19 35 10 19 1014.2 1014.1 0.2
18/10:00pm 11.6 8.0 4.8 63 3.1 W 13 30 7 16 1013.9 1013.8 0.2
18/09:30pm 11.9 8.0 5.5 65 3.0 W 15 26 8 14 1013.7 1013.6 0.2
18/09:00pm 12.3 8.2 6.1 66 3.0 WNW 17 35 9 19 1013.6 1013.5 0.2
18/08:30pm 11.7 8.6 7.4 75 2.1 WNW 13 20 7 11 1013.4 1013.2 0.2
18/08:00pm 11.7 8.6 8.9 83 1.4 W 15 26 8 14 1013.4 1013.2 0.2
18/07:30pm 13.1 9.1 8.2 72 2.5 WNW 19 30 10 16 1012.9 1012.7 0.2
18/07:00pm 12.8 8.6 9.8 82 1.6 WNW 22 39 12 21 1012.7 1012.5 0.2
18/06:30pm 14.8 9.8 8.1 64 3.4 WNW 24 39 13 21 1011.9 1011.7 0.0
18/06:13pm 15.6 9.6 7.1 57 4.2 WNW 28 46 15 25 1011.5 1011.3 0.0
18/06:00pm 16.9 11.7 5.5 47 5.6 WNW 22 39 12 21 1011.1 1010.9 0.0
18/05:30pm 17.7 10.6 5.3 44 6.1 NW 32 50 17 27 1010.8 1010.7 0.0
18/05:04pm 17.4 11.0 5.0 44 6.0 WNW 28 48 15 26 1011.3 1011.1 0.0
18/05:00pm 17.5 11.1 5.1 44 6.0 WNW 28 44 15 24 1011.3 1011.1 0.0
18/04:30pm 18.6 12.0 4.4 39 6.9 NW 28 48 15 26 1011.1 1010.9 0.0
18/04:00pm 18.8 10.6 4.6 39 6.9 NW 37 50 20 27 1011.3 1011.1 0.0
18/03:30pm 18.1 10.7 3.9 39 6.8 WNW 32 52 17 28 1011.6 1011.4 0.0
18/03:00pm 18.2 10.0 2.5 35 7.3 NW 35 54 19 29 1011.8 1011.6 0.0
18/02:38pm 18.3 10.5 3.0 36 7.2 NW 33 52 18 28 1012.1 1011.9 0.0
18/02:30pm 18.1 9.8 2.4 35 7.3 NW 35 52 19 28 1012.1 1011.9 0.0
18/02:00pm 17.5 9.0 3.0 38 6.8 NW 37 56 20 30 1012.4 1012.2 0.0
18/01:32pm 17.5 8.8 4.1 41 6.4 NNW 39 57 21 31 1012.9 1012.7 0.0
18/01:30pm 17.4 8.6 3.7 40 6.5 NNW 39 54 21 29 1013.0 1012.8 0.0
18/01:19pm 16.5 8.5 3.9 43 5.9 NW 35 46 19 25 1013.1 1012.9 0.0
18/01:00pm 16.4 8.5 4.4 45 5.7 NW 35 50 19 27 1013.6 1013.5 0.0
18/12:30pm 15.5 7.3 4.6 48 5.2 NW 37 57 20 31 1014.0 1013.9 0.0
18/12:24pm 15.1 7.2 4.5 49 5.0 NW 35 57 19 31 1014.0 1013.9 0.0
18/12:00pm 14.1 6.2 4.4 52 4.5 NNW 35 52 19 28 1014.3 1014.2 0.0
18/11:30am 13.7 6.3 4.8 55 4.2 NNW 33 56 18 30 1014.7 1014.6 0.0
18/11:20am 13.3 5.9 5.0 57 3.9 NNW 33 54 18 29 1014.8 1014.7 0.0
18/11:00am 13.2 5.9 4.6 56 4.0 NNW 32 46 17 25 1015.1 1015.0 0.0
18/10:36am 12.4 6.0 5.3 62 3.3 NNW 28 48 15 26 1015.2 1015.1 0.0
18/10:30am 11.5 5.9 5.2 65 2.9 NNW 24 39 13 21 1015.5 1015.3 0.0
18/10:00am 10.3 4.9 4.5 67 2.6 NNW 22 35 12 19 1015.7 1015.5 0.0
18/09:30am 9.2 3.7 3.8 69 2.4 NNW 22 32 12 17 1016.0 1015.8 0.0
18/09:00am 7.8 3.5 3.3 73 1.9 NNW 15 20 8 11 1016.1 1015.9 0.0
18/08:30am 6.9 2.9 2.6 74 1.8 NW 13 19 7 10 1016.1 1015.9 0.0
18/08:00am 6.7 2.7 2.6 75 1.7 NNW 13 20 7 11 1015.9 1015.7 0.0
18/07:30am 5.7 1.6 2.4 79 1.4 N 13 20 7 11 1015.8 1015.6 0.0
18/07:00am 5.4 1.3 2.4 81 1.2 N 13 20 7 11 1015.5 1015.3 0.0
18/06:30am 4.9 1.5 2.1 82 1.1 N 9 13 5 7 1015.3 1015.2 0.0
18/06:00am 5.0 1.3 2.4 83 1.1 N 11 17 6 9 1015.3 1015.2 0.0
18/05:30am 4.9 1.2 2.3 83 1.1 N 11 15 6 8 1015.3 1015.2 0.0
18/05:00am 5.2 1.9 2.4 82 1.1 N 9 13 5 7 1015.6 1015.4 0.0
18/04:30am 4.6 1.3 2.3 85 0.9 N 9 11 5 6 1015.9 1015.7 0.0
18/04:00am 4.7 1.7 2.2 84 1.0 NNE 7 9 4 5 1015.9 1015.7 0.0
18/03:30am 3.9 1.0 1.4 84 1.0 N 6 7 3 4 1016.3 1016.1 0.0
18/03:00am 5.6 2.6 2.1 78 1.4 N 7 11 4 6 1016.4 1016.2 0.0
18/02:30am 6.7 2.6 2.2 73 1.9 NNW 13 20 7 11 1016.6 1016.4 0.0
18/02:00am 5.7 2.9 2.2 78 1.4 N 6 7 3 4 1016.8 1016.6 0.0
18/01:30am 5.0 2.5 1.8 80 1.3 N 4 7 2 4 1016.9 1016.7 0.0
18/01:00am 5.1 2.6 1.6 78 1.4 N 4 7 2 4 1017.1 1016.9 0.0
18/12:30am 6.0 3.0 1.7 74 1.8 N 7 9 4 5 1017.0 1016.8 0.0
18/12:00am 5.9 2.9 1.1 71 1.9 NNE 6 9 3 5 1017.2 1017.1 0.0
 
Date/Time
EDT
Temp
°C
App
Temp
°C
Dew
Point
°C
Rel
Hum
%
Delta-T
°C
Wind Press
QNH
hPa
Press
MSL
hPa
Rain since
9am
mm
Dir  Spd
km/h
Gust
km/h
Spd
kts
Gust
kts
17/11:30pm 7.9 4.8 1.3 63 2.7 W 7 11 4 6 1017.2 1017.1 0.0
17/11:00pm 8.7 5.6 1.4 60 3.0 NW 7 11 4 6 1017.2 1017.1 0.0
17/10:30pm 8.9 5.4 1.1 58 3.2 W 9 13 5 7 1017.3 1017.2 0.0
17/10:00pm 9.5 6.6 1.4 57 3.4 WNW 6 11 3 6 1017.5 1017.4 0.0
17/09:30pm 10.1 5.9 1.7 56 3.6 W 13 20 7 11 1017.3 1017.2 0.0
17/09:00pm 10.4 5.9 2.0 56 3.6 WSW 15 26 8 14 1016.9 1016.7 0.0
17/08:30pm 10.8 6.7 2.4 56 3.6 W 13 28 7 15 1016.8 1016.6 0.0
17/08:00pm 11.1 6.4 3.2 58 3.5 W 17 32 9 17 1016.2 1016.0 0.0
17/07:30pm 11.3 6.2 2.9 56 3.7 W 19 35 10 19 1015.8 1015.6 0.0
17/07:00pm 11.7 5.9 2.5 53 4.0 W 22 33 12 18 1015.5 1015.3 0.0
17/06:30pm 12.9 8.2 3.3 52 4.3 W 17 30 9 16 1015.0 1014.9 0.0
17/06:00pm 13.4 8.3 3.2 50 4.6 W 19 35 10 19 1014.7 1014.6 0.0
17/05:30pm 12.9 7.8 3.0 51 4.4 W 19 30 10 16 1014.1 1014.0 0.0
17/05:00pm 13.2 7.9 3.0 50 4.6 W 20 37 11 20 1013.5 1013.3 0.0
17/04:30pm 13.4 7.3 2.6 48 4.8 W 24 39 13 21 1013.2 1013.0 0.0
17/04:00pm 13.7 7.2 2.9 48 4.9 W 26 43 14 23 1013.1 1012.9 0.0
17/03:30pm 14.9 9.3 3.4 46 5.3 WSW 22 37 12 20 1013.1 1012.9 0.0
17/03:08pm 14.4 7.6 2.9 46 5.2 W 28 46 15 25 1012.9 1012.7 0.0
17/03:00pm 14.6 8.2 3.1 46 5.2 W 26 44 14 24 1012.8 1012.6 0.0
17/02:30pm 14.8 8.3 4.5 50 4.8 WSW 28 44 15 24 1012.8 1012.6 0.0
17/02:04pm 12.8 6.0 3.2 52 4.3 W 28 48 15 26 1012.9 1012.7 0.0
17/02:00pm 12.7 6.2 2.8 51 4.4 W 26 46 14 25 1012.8 1012.6 0.0
17/01:30pm 12.0 6.0 3.5 56 3.8 W 24 44 13 24 1012.8 1012.6 0.0
17/01:00pm 11.7 5.7 3.5 57 3.7 W 24 41 13 22 1012.9 1012.7 0.0
17/12:30pm 11.1 5.1 3.2 58 3.5 W 24 44 13 24 1012.7 1012.5 0.0
17/12:00pm 12.6 6.0 1.9 48 4.7 W 26 41 14 22 1012.2 1012.0 0.0
17/11:47am 12.2 5.2 1.8 49 4.5 WNW 28 46 15 25 1012.3 1012.1 0.0
17/11:30am 12.6 6.2 3.0 52 4.3 W 26 41 14 22 1012.1 1011.9 0.0
17/11:00am 11.9 5.4 2.6 53 4.1 W 26 43 14 23 1012.0 1011.8 0.0
17/10:30am 11.2 4.3 2.5 55 3.8 W 28 44 15 24 1011.8 1011.6 0.0
17/10:00am 10.2 3.3 2.8 60 3.2 WSW 28 46 15 25 1011.5 1011.3 0.0
17/09:47am 10.3 3.4 2.4 58 3.4 W 28 48 15 26 1011.4 1011.2 0.0
17/09:30am 10.2 4.9 2.8 60 3.2 W 20 35 11 19 1011.4 1011.2 0.0
17/09:00am 9.6 4.9 2.9 63 2.9 WSW 17 30 9 16 1011.2 1011.0 0.6
17/08:30am 8.6 5.5 3.8 72 2.1 SW 9 17 5 9 1010.8 1010.7 0.6
17/08:00am 7.2 3.5 4.5 83 1.2 WSW 13 22 7 12 1010.7 1010.6 0.6
17/07:30am 7.6 3.0 3.8 77 1.7 W 17 28 9 15 1010.1 1010.0 0.6
17/07:00am 7.5 2.9 3.7 77 1.7 W 17 28 9 15 1009.5 1009.3 0.6
17/06:30am 7.4 2.8 3.6 77 1.6 W 17 24 9 13 1008.9 1008.7 0.6
17/06:00am 7.6 3.4 3.8 77 1.7 W 15 24 8 13 1008.8 1008.6 0.6
17/05:30am 7.9 3.3 3.6 74 1.9 W 17 26 9 14 1008.5 1008.3 0.6
17/05:00am 8.1 2.5 3.4 72 2.0 WNW 22 43 12 23 1008.0 1007.8 0.6
17/04:30am 8.4 3.3 4.0 74 1.9 WNW 20 32 11 17 1008.2 1008.0 0.6
17/04:00am 8.7 4.1 3.7 71 2.2 WNW 17 28 9 15 1008.3 1008.1 0.6
17/03:30am 8.7 4.5 3.7 71 2.2 WNW 15 24 8 13 1008.5 1008.3 0.6
17/03:00am 8.7 4.2 4.3 74 2.0 WNW 17 32 9 17 1008.8 1008.6 0.6
17/02:30am 8.8 5.0 7.4 91 0.7 NW 17 22 9 12 1009.0 1008.8 0.6
17/02:00am 9.0 6.0 7.8 92 0.6 NW 13 19 7 10 1009.2 1009.0 0.4
17/01:30am 9.0 5.2 7.5 90 0.7 NNW 17 22 9 12 1009.4 1009.2 0.4
17/01:00am 9.0 6.4 7.6 91 0.7 NNW 11 15 6 8 1009.5 1009.3 0.4
17/12:30am 9.2 6.1 7.3 88 0.9 NW 13 19 7 10 1009.8 1009.6 0.4
17/12:00am 9.9 4.9 6.6 80 1.6 WNW 22 39 12 21 1010.0 1009.9 0.2
 
Date/Time
EDT
Temp
°C
App
Temp
°C
Dew
Point
°C
Rel
Hum
%
Delta-T
°C
Wind Press
QNH
hPa
Press
MSL
hPa
Rain since
9am
mm
Dir  Spd
km/h
Gust
km/h
Spd
kts
Gust
kts
16/11:30pm 10.0 7.1 4.6 69 2.4 N 9 11 5 6 1009.7 1009.5 0.0
16/11:00pm 10.2 7.3 4.6 68 2.5 N 9 11 5 6 1009.8 1009.6 0.0
16/10:30pm 10.8 8.2 4.0 63 3.1 WNW 7 11 4 6 1010.0 1009.9 0.0
16/10:00pm 11.5 8.1 4.0 60 3.4 WNW 11 15 6 8 1010.2 1010.1 0.0
16/09:30pm 12.3 8.5 4.0 57 3.8 W 13 22 7 12 1010.1 1010.0 0.0
16/09:00pm 13.0 8.8 3.9 54 4.2 WNW 15 24 8 13 1009.8 1009.6 0.0
16/08:30pm 13.8 9.3 4.4 53 4.4 WNW 17 24 9 13 1009.4 1009.2 0.0
16/08:00pm 14.6 10.1 4.3 50 4.8 WNW 17 28 9 15 1009.0 1008.8 0.0
16/07:30pm 15.8 11.1 3.3 43 5.8 WNW 17 28 9 15 1008.7 1008.5 0.0
16/07:00pm 16.8 11.6 3.5 41 6.2 WNW 20 32 11 17 1008.6 1008.4 0.0
16/06:30pm 17.7 12.7 3.6 39 6.7 WNW 19 32 10 17 1008.3 1008.1 0.0
16/06:00pm 18.0 13.3 5.2 43 6.3 WNW 19 33 10 18 1007.9 1007.7 0.0
16/05:30pm 17.4 13.7 9.3 59 4.3 NW 19 28 10 15 1007.7 1007.5 0.0
16/05:00pm 16.5 13.2 9.4 63 3.7 NW 17 22 9 12 1007.8 1007.6 0.0
16/04:30pm 14.8 11.7 10.2 74 2.4 NNW 17 20 9 11 1008.1 1007.9 0.0
16/04:00pm 16.8 13.2 8.2 57 4.4 NW 17 24 9 13 1008.2 1008.0 0.0
16/03:30pm 17.7 13.2 8.6 55 4.7 NW 22 32 12 17 1008.4 1008.2 0.0
16/03:00pm 17.4 13.4 9.1 58 4.4 NW 20 28 11 15 1009.0 1008.8 0.0
16/02:30pm 16.7 12.2 8.7 59 4.2 NW 22 32 12 17 1009.6 1009.4 0.0
16/02:00pm 16.5 13.1 9.0 61 3.9 NW 17 28 9 15 1009.9 1009.8 0.0
16/01:30pm 15.9 12.7 9.8 67 3.2 NW 17 24 9 13 1009.9 1009.8 0.0
16/01:00pm 15.2 10.6 9.8 70 2.8 NW 24 32 13 17 1009.9 1009.8 0.0
16/12:30pm 15.3 11.6 10.3 72 2.7 NW 20 30 11 16 1010.1 1010.0 0.0
16/12:00pm 14.8 10.2 9.8 72 2.6 NNW 24 32 13 17 1010.5 1010.4 0.0
16/11:30am 15.0 11.6 11.4 79 2.0 NNW 20 28 11 15 1010.5 1010.4 0.0
16/11:00am 13.9 10.5 11.2 84 1.5 NNW 20 28 11 15 1010.7 1010.6 0.0
16/10:30am 12.7 10.2 11.1 90 0.9 NNW 15 19 8 10 1011.1 1010.9 0.0
16/10:00am 12.1 9.9 10.8 92 0.7 NNW 13 19 7 10 1011.0 1010.8 0.0
16/09:30am 12.0 10.0 11.4 96 0.3 NNW 13 20 7 11 1011.3 1011.1 0.0
16/09:00am 11.7 10.4 11.4 98 0.2 N 9 13 5 7 1011.3 1011.1 1.2
16/08:30am 11.4 10.1 11.2 99 0.1 N 9 13 5 7 1011.3 1011.1 1.2
16/08:00am 11.3 10.3 11.0 98 0.2 WNW 7 11 4 6 1011.9 1011.7 0.8
16/07:30am 11.4 10.6 11.1 98 0.2 ENE 6 7 3 4 1010.6 1010.5 0.6
16/07:00am 11.4 10.4 11.1 98 0.2 ENE 7 9 4 5 1010.8 1010.7 0.4

Other formats

Comma delimited format used in spreadsheet applications
http://www.bom.gov.au/fwo/IDV60801/IDV60801.94836.axf

JavaScript Object Notation format (JSON) in row-major order
http://www.bom.gov.au/fwo/IDV60801/IDV60801.94836.json

Data quality

Most of these data are generated automatically and are frequently updated. Quality checks on data are not normally performed. It is possible for incorrect values to appear. Refer to information at About Latest Weather Observations and please check the disclaimer before using these data.